Buoy 41938

sailwx.info

Track history (hours):
 
Tides and Currents Weather Stations Pressure Air Temp Water Temp Dewpoint Dewpoint Depression Visibility Wind Speed Wind Dir Waves Ship Positions

Drifting buoy 41938

Last reported at 2014-Oct-21 03:00 UTC. Time now 2014-Oct-21 03:54 UTC.
Position N 35°40' W 069°34'.

Barometer 1020.0 mb
Water temperature 25.4 ° C

Date/timePositionNaut miles runAvg speedWind from/ knotsBaromVisibWave heightAir tempDewpointWater temp
2014-Oct-21 03:00N 35°40' W 069°34'0 0.0 1020.0 25.4
2014-Oct-21 02:00N 35°40' W 069°34'2 1.8 1020.0 25.4
2014-Oct-21 01:00N 35°40' W 069°32'0 0.0 1019.9 25.4
2014-Oct-21 00:00N 35°40' W 069°32'2 1.0 1019.8 25.4
2014-Oct-20 22:00N 35°40' W 069°29'1 1.1 1019.2 25.4
2014-Oct-20 21:00N 35°41' W 069°28'1 1.3 1019.3 25.4
2014-Oct-20 20:00N 35°42' W 069°27'0 0.0 1019.3 25.4
2014-Oct-20 19:00N 35°42' W 069°27'0 0.2 1019.4 25.4
2014-Oct-20 18:00N 35°42' W 069°27'1 0.8 1019.7 25.4
2014-Oct-20 17:00N 35°42' W 069°27'0 0.1 1020.2 25.4
2014-Oct-20 16:00N 35°42' W 069°27'2 0.8 1020.8 25.4
2014-Oct-20 14:00N 35°44' W 069°26'0 0.1 1021.1 25.4
2014-Oct-20 11:00N 35°44' W 069°26'1 1.4 1018.6 25.4
2014-Oct-20 10:00N 35°45' W 069°27'2 1.6 1018.1 25.4
2014-Oct-20 09:00N 35°45' W 069°25'1 0.3 1017.4 25.5
2014-Oct-20 07:00N 35°45' W 069°25'0 0.1 1016.3 25.4
2014-Oct-20 05:00N 35°45' W 069°25'2 2.3 1015.4 25.5
2014-Oct-20 04:00N 35°47' W 069°23'1 0.5 1015.1 25.5
2014-Oct-20 02:00N 35°47' W 069°22'1 1.1 1014.2 25.5
2014-Oct-20 01:00N 35°48' W 069°22'1 1.0 1013.6 25.5
2014-Oct-20 00:00N 35°49' W 069°22'3 1.1 1012.7 25.5
2014-Oct-19 21:00N 35°52' W 069°23'0 0.0 1010.2 25.6
2014-Oct-19 20:00N 35°52' W 069°23'1 1.2 1009.0 25.6
2014-Oct-19 19:00N 35°54' W 069°24'1 1.4 1008.4 25.6
2014-Oct-19 18:00N 35°54' W 069°25'0 0.0 1007.8 25.7
2014-Oct-19 17:00N 35°54' W 069°25'1 1.1 1007.9 25.7
2014-Oct-19 16:00N 35°55' W 069°26'0 0.0 1008.8 25.6
2014-Oct-19 15:00N 35°55' W 069°26'0 0.4 1007.1 25.6
2014-Oct-19 14:00N 35°55' W 069°27'0 0.0 1005.1 25.6
2014-Oct-19 13:00N 35°55' W 069°27'2 0.7 1006.8 25.7
2014-Oct-19 10:00N 35°53' W 069°27'0 0.0 1006.7 25.7
2014-Oct-19 09:00N 35°53' W 069°27'0 0.4 1006.8 25.7
2014-Oct-19 08:00N 35°53' W 069°26'0 0.5 1006.5 25.7
2014-Oct-19 07:00N 35°52' W 069°26'0 0.0 1007.1 25.7
2014-Oct-19 06:00N 35°52' W 069°26'1 0.9 1007.6 25.7
2014-Oct-19 05:00N 35°52' W 069°26'1 0.2 1007.7 25.7
2014-Oct-19 02:00N 35°51' W 069°27'0 0.1 1008.3 25.7
2014-Oct-19 01:00N 35°51' W 069°27'1 1.1 1008.2 25.7
2014-Oct-19 00:00N 35°50' W 069°26'1 1.0 1008.0 25.6
2014-Oct-18 23:00N 35°50' W 069°27'0 0.0 1007.5 25.6
2014-Oct-18 22:00N 35°50' W 069°27'0 0.0 1006.9 25.6
2014-Oct-18 21:00N 35°50' W 069°27'1 0.8 1006.6 25.6
2014-Oct-18 20:00N 35°50' W 069°28'0 0.2 1006.5 25.7
2014-Oct-18 19:00N 35°50' W 069°28'0 0.4 1006.6 25.7
2014-Oct-18 18:00N 35°50' W 069°28'0 0.2 1006.5 25.7
2014-Oct-18 17:00N 35°50' W 069°29'0 0.2 1006.9 25.7
2014-Oct-18 15:00N 35°50' W 069°28'0 0.2 1007.6 25.7
2014-Oct-18 14:00N 35°50' W 069°28'0 0.1 1007.7 25.7
2014-Oct-18 11:00N 35°50' W 069°28'1 0.6 1007.1 25.6
2014-Oct-18 10:00N 35°50' W 069°27'1 0.6 1007.0 25.6
2014-Oct-18 09:00N 35°49' W 069°27'2 2.0 1006.9 25.6
2014-Oct-18 08:00N 35°51' W 069°27'3 1.5 1006.7 25.6
2014-Oct-18 06:00N 35°54' W 069°25'2 1.8 1007.7 25.7
2014-Oct-18 05:00N 35°52' W 069°26'2 0.7 1007.8 25.7
2014-Oct-18 02:00N 35°54' W 069°26'0 0.5 1008.8 25.8
2014-Oct-18 01:00N 35°54' W 069°26'1 0.6 1008.9 25.8
2014-Oct-17 23:00N 35°55' W 069°26'1 0.6 1009.1 25.8
2014-Oct-17 21:00N 35°54' W 069°25'1 0.9 1008.7 25.8
2014-Oct-17 20:00N 35°53' W 069°25'2 1.6 1009.1 25.8
2014-Oct-17 19:00N 35°52' W 069°23'0 0.0 1009.2 25.8
2014-Oct-17 17:00N 35°52' W 069°23'3 1.5 1009.8 25.8
2014-Oct-17 15:00N 35°52' W 069°20'4 3.9 1010.8 25.8
2014-Oct-17 14:00N 35°53' W 069°15'0 0.0 1010.7 25.8
2014-Oct-17 11:00N 35°53' W 069°15'1 1.1 1009.9 25.7
2014-Oct-17 10:00N 35°54' W 069°14'2 2.2 1009.1 25.7
2014-Oct-17 09:00N 35°56' W 069°14'0 0.3 1008.5 25.7
2014-Oct-17 08:00N 35°56' W 069°14'2 2.3 1007.8 25.7
2014-Oct-17 07:00N 35°58' W 069°15'2 1.6 1007.9 25.7
2014-Oct-17 06:00N 35°59' W 069°17'0 0.1 1008.6 25.8
2014-Oct-17 02:00N 35°59' W 069°17'1 1.0 1007.1 26.1
2014-Oct-17 01:00N 35°58' W 069°17'3 3.2 1008.7 26.1
2014-Oct-17 00:00N 35°56' W 069°14'0 0.0 1009.4 26.1
2014-Oct-16 22:00N 35°56' W 069°14'1 0.4 1010.3 26.0
2014-Oct-16 19:00N 35°55' W 069°15'12 0.9 1011.2 25.8
2014-Oct-16 06:00N 35°48' W 069°03'0 0.0 1016.5 25.8
2014-Oct-16 02:00N 35°48' W 069°03'1 1.2 1019.3 25.6
2014-Oct-16 01:00N 35°47' W 069°01'2 1.1 1019.5 25.5
2014-Oct-15 23:00N 35°46' W 068°59'2 0.4 1019.7 25.4
2014-Oct-15 18:00N 35°44' W 068°59'3 1.1 1020.0 25.1
2014-Oct-15 15:00N 35°44' W 068°55'0 0.3 1022.2 25.1
2014-Oct-15 14:00N 35°44' W 068°55'1 0.4 1022.5 25.1
2014-Oct-15 10:00N 35°42' W 068°54'0 0.0 1022.4 25.1
2014-Oct-15 09:00N 35°42' W 068°54'1 0.4 1022.6 25.0
2014-Oct-15 06:00N 35°43' W 068°52'0 0.0 1023.3 25.0
2014-Oct-15 02:00N 35°43' W 068°52'0 0.1 1024.6 25.1
2014-Oct-15 01:00N 35°43' W 068°52'1 0.4 1024.6 25.1
2014-Oct-14 23:00N 35°43' W 068°52'0 0.5 1024.7 25.1
2014-Oct-14 22:00N 35°43' W 068°51'0 0.1 1024.4 25.2
2014-Oct-14 18:00N 35°43' W 068°52'1 0.2 1025.0 25.4
2014-Oct-14 15:00N 35°42' W 068°51'1 0.4 1026.6 25.1
2014-Oct-14 13:00N 35°43' W 068°52'1 0.4 1026.7 25.1
2014-Oct-14 11:00N 35°43' W 068°52'0 0.4 1025.9 25.1
2014-Oct-14 10:00N 35°44' W 068°52'0 0.5 1025.7 25.1
2014-Oct-14 09:00N 35°44' W 068°52'2 0.8 1025.6 25.1
2014-Oct-14 06:00N 35°47' W 068°52'0 0.1 1025.7 25.1
2014-Oct-14 02:00N 35°47' W 068°53'0 0.0 1026.5 25.1
2014-Oct-14 01:00N 35°47' W 068°53'2 0.7 1026.4 25.1
2014-Oct-13 22:00N 35°49' W 068°54'0 0.0 1026.0 25.1
2014-Oct-13 21:00N 35°49' W 068°54'0 0.1 1025.7 25.1
2014-Oct-13 20:00N 35°49' W 068°54'1 0.6 1025.6 25.2
2014-Oct-13 18:00N 35°50' W 068°54'1 0.5 1025.6 25.1
2014-Oct-13 17:00N 35°51' W 068°54'1 0.7 1026.1 25.0
2014-Oct-13 16:00N 35°51' W 068°53'0 0.4 1026.6 25.0
2014-Oct-13 15:00N 35°52' W 068°53'2 0.6 1026.8 25.0
2014-Oct-13 11:00N 35°54' W 068°52'4 2.0 1025.1 25.0
2014-Oct-13 09:00N 35°57' W 068°49'0 0.0 1024.1 25.1
2014-Oct-13 08:00N 35°57' W 068°49'0 0.0 1024.0 25.1
2014-Oct-13 07:00N 35°57' W 068°49'5 2.4 1023.6 25.1
2014-Oct-13 05:00N 36°01' W 068°51'1 0.3 1023.5 25.1
2014-Oct-13 02:00N 36°02' W 068°52'1 1.3 1023.2 25.1
2014-Oct-13 01:00N 36°03' W 068°50'0 0.0 1022.8 25.2
2014-Oct-13 00:00N 36°03' W 068°50'4 3.9 1022.1 25.2
2014-Oct-12 23:00N 36°06' W 068°48'0 0.0 1021.2 25.2
2014-Oct-12 22:00N 36°06' W 068°48'1 0.7 1020.8 25.2
2014-Oct-12 21:00N 36°06' W 068°48'2 2.3 1020.3 25.3
2014-Oct-12 20:00N 36°08' W 068°47'2 1.1 1019.9 25.3
2014-Oct-12 18:00N 36°10' W 068°46'3 1.6 1018.4 25.3
2014-Oct-12 16:00N 36°13' W 068°44'1 0.8 1017.6 25.4
2014-Oct-12 15:00N 36°14' W 068°44'7 7.4 1016.8 25.4
2014-Oct-12 14:00N 36°21' W 068°39'2 0.4 1016.4 25.4
2014-Oct-12 10:00N 36°22' W 068°39'2 2.3 1012.6 25.3
2014-Oct-12 09:00N 36°24' W 068°38'2 0.8 1012.1 25.3
2014-Oct-12 07:00N 36°25' W 068°39'0 0.0 1012.3 25.3
2014-Oct-12 05:00N 36°25' W 068°39'3 1.0 1013.3 25.3
2014-Oct-12 02:00N 36°28' W 068°39'1 1.0 1014.2 25.4
2014-Oct-12 01:00N 36°29' W 068°39'0 0.1 1014.6 25.4
2014-Oct-12 00:00N 36°29' W 068°39'2 2.3 1014.8 25.5
2014-Oct-11 23:00N 36°31' W 068°38'1 0.5 1015.2 25.5
2014-Oct-11 21:00N 36°32' W 068°39'1 0.9 1015.2 25.5
2014-Oct-11 20:00N 36°33' W 068°40'0 0.0 1015.7 25.5
2014-Oct-11 19:00N 36°33' W 068°40'0 0.3 1016.2 25.6
2014-Oct-11 18:00N 36°33' W 068°40'0 0.5 1016.5 25.5
2014-Oct-11 17:00N 36°33' W 068°40'1 0.8 1017.0 25.5
2014-Oct-11 16:00N 36°34' W 068°41'1 1.2 1017.8 25.4
2014-Oct-11 15:00N 36°34' W 068°39'1 1.4 1018.0 25.4
2014-Oct-11 14:00N 36°35' W 068°39'1 1.2 1018.5 25.4
2014-Oct-11 13:00N 36°36' W 068°38'0 0.0 1018.8 25.4
2014-Oct-11 11:00N 36°36' W 068°38'0 0.0 1018.3 25.4
2014-Oct-11 10:00N 36°36' W 068°38'2 1.9 1018.2 25.4
2014-Oct-11 09:00N 36°37' W 068°37'0 0.0 1017.9 25.3
2014-Oct-11 08:00N 36°37' W 068°37'1 0.7 1018.2 25.3
2014-Oct-11 07:00N 36°38' W 068°37'0 0.2 1018.7 25.3
2014-Oct-11 05:00N 36°38' W 068°37'2 2.2 1019.1 25.3
2014-Oct-11 04:00N 36°40' W 068°35'0 0.0 1019.4 25.3
2014-Oct-11 03:00N 36°40' W 068°35'   1019.9 25.3
Track history (hours):
 
Tides and Currents Weather Stations Pressure Air Temp Water Temp Dewpoint Dewpoint Depression Visibility Wind Speed Wind Dir Waves Ship Positions

Drifting buoy 41938

Last reported at 2014-Oct-21 03:00 UTC. Time now 2014-Oct-21 03:54 UTC.
Position N 35°40' W 069°34'.

Barometer 1020.0 mb
Water temperature 25.4 ° C

Date/timePositionNaut miles runAvg speedWind from/ knotsBaromVisibWave heightAir tempDewpointWater temp
2014-Oct-21 03:00N 35°40' W 069°34'0 0.0 1020.0 25.4
2014-Oct-21 02:00N 35°40' W 069°34'2 1.8 1020.0 25.4
2014-Oct-21 01:00N 35°40' W 069°32'0 0.0 1019.9 25.4
2014-Oct-21 00:00N 35°40' W 069°32'2 1.0 1019.8 25.4
2014-Oct-20 22:00N 35°40' W 069°29'1 1.1 1019.2 25.4
2014-Oct-20 21:00N 35°41' W 069°28'1 1.3 1019.3 25.4
2014-Oct-20 20:00N 35°42' W 069°27'0 0.0 1019.3 25.4
2014-Oct-20 19:00N 35°42' W 069°27'0 0.2 1019.4 25.4
2014-Oct-20 18:00N 35°42' W 069°27'1 0.8 1019.7 25.4
2014-Oct-20 17:00N 35°42' W 069°27'0 0.1 1020.2 25.4
2014-Oct-20 16:00N 35°42' W 069°27'2 0.8 1020.8 25.4
2014-Oct-20 14:00N 35°44' W 069°26'0 0.1 1021.1 25.4
2014-Oct-20 11:00N 35°44' W 069°26'1 1.4 1018.6 25.4
2014-Oct-20 10:00N 35°45' W 069°27'2 1.6 1018.1 25.4
2014-Oct-20 09:00N 35°45' W 069°25'1 0.3 1017.4 25.5
2014-Oct-20 07:00N 35°45' W 069°25'0 0.1 1016.3 25.4
2014-Oct-20 05:00N 35°45' W 069°25'2 2.3 1015.4 25.5
2014-Oct-20 04:00N 35°47' W 069°23'1 0.5 1015.1 25.5
2014-Oct-20 02:00N 35°47' W 069°22'1 1.1 1014.2 25.5
2014-Oct-20 01:00N 35°48' W 069°22'1 1.0 1013.6 25.5
2014-Oct-20 00:00N 35°49' W 069°22'3 1.1 1012.7 25.5
2014-Oct-19 21:00N 35°52' W 069°23'0 0.0 1010.2 25.6
2014-Oct-19 20:00N 35°52' W 069°23'1 1.2 1009.0 25.6
2014-Oct-19 19:00N 35°54' W 069°24'1 1.4 1008.4 25.6
2014-Oct-19 18:00N 35°54' W 069°25'0 0.0 1007.8 25.7
2014-Oct-19 17:00N 35°54' W 069°25'1 1.1 1007.9 25.7
2014-Oct-19 16:00N 35°55' W 069°26'0 0.0 1008.8 25.6
2014-Oct-19 15:00N 35°55' W 069°26'0 0.4 1007.1 25.6
2014-Oct-19 14:00N 35°55' W 069°27'0 0.0 1005.1 25.6
2014-Oct-19 13:00N 35°55' W 069°27'2 0.7 1006.8 25.7
2014-Oct-19 10:00N 35°53' W 069°27'0 0.0 1006.7 25.7
2014-Oct-19 09:00N 35°53' W 069°27'0 0.4 1006.8 25.7
2014-Oct-19 08:00N 35°53' W 069°26'0 0.5 1006.5 25.7
2014-Oct-19 07:00N 35°52' W 069°26'0 0.0 1007.1 25.7
2014-Oct-19 06:00N 35°52' W 069°26'1 0.9 1007.6 25.7
2014-Oct-19 05:00N 35°52' W 069°26'1 0.2 1007.7 25.7
2014-Oct-19 02:00N 35°51' W 069°27'0 0.1 1008.3 25.7
2014-Oct-19 01:00N 35°51' W 069°27'1 1.1 1008.2 25.7
2014-Oct-19 00:00N 35°50' W 069°26'1 1.0 1008.0 25.6
2014-Oct-18 23:00N 35°50' W 069°27'0 0.0 1007.5 25.6
2014-Oct-18 22:00N 35°50' W 069°27'0 0.0 1006.9 25.6
2014-Oct-18 21:00N 35°50' W 069°27'1 0.8 1006.6 25.6
2014-Oct-18 20:00N 35°50' W 069°28'0 0.2 1006.5 25.7
2014-Oct-18 19:00N 35°50' W 069°28'0 0.4 1006.6 25.7
2014-Oct-18 18:00N 35°50' W 069°28'0 0.2 1006.5 25.7
2014-Oct-18 17:00N 35°50' W 069°29'0 0.2 1006.9 25.7
2014-Oct-18 15:00N 35°50' W 069°28'0 0.2 1007.6 25.7
2014-Oct-18 14:00N 35°50' W 069°28'0 0.1 1007.7 25.7
2014-Oct-18 11:00N 35°50' W 069°28'1 0.6 1007.1 25.6
2014-Oct-18 10:00N 35°50' W 069°27'1 0.6 1007.0 25.6
2014-Oct-18 09:00N 35°49' W 069°27'2 2.0 1006.9 25.6
2014-Oct-18 08:00N 35°51' W 069°27'3 1.5 1006.7 25.6
2014-Oct-18 06:00N 35°54' W 069°25'2 1.8 1007.7 25.7
2014-Oct-18 05:00N 35°52' W 069°26'2 0.7 1007.8 25.7
2014-Oct-18 02:00N 35°54' W 069°26'0 0.5 1008.8 25.8
2014-Oct-18 01:00N 35°54' W 069°26'1 0.6 1008.9 25.8
2014-Oct-17 23:00N 35°55' W 069°26'1 0.6 1009.1 25.8
2014-Oct-17 21:00N 35°54' W 069°25'1 0.9 1008.7 25.8
2014-Oct-17 20:00N 35°53' W 069°25'2 1.6 1009.1 25.8
2014-Oct-17 19:00N 35°52' W 069°23'0 0.0 1009.2 25.8
2014-Oct-17 17:00N 35°52' W 069°23'3 1.5 1009.8 25.8
2014-Oct-17 15:00N 35°52' W 069°20'4 3.9 1010.8 25.8
2014-Oct-17 14:00N 35°53' W 069°15'0 0.0 1010.7 25.8
2014-Oct-17 11:00N 35°53' W 069°15'1 1.1 1009.9 25.7
2014-Oct-17 10:00N 35°54' W 069°14'2 2.2 1009.1 25.7
2014-Oct-17 09:00N 35°56' W 069°14'0 0.3 1008.5 25.7
2014-Oct-17 08:00N 35°56' W 069°14'2 2.3 1007.8 25.7
2014-Oct-17 07:00N 35°58' W 069°15'2 1.6 1007.9 25.7
2014-Oct-17 06:00N 35°59' W 069°17'0 0.1 1008.6 25.8
2014-Oct-17 02:00N 35°59' W 069°17'1 1.0 1007.1 26.1
2014-Oct-17 01:00N 35°58' W 069°17'3 3.2 1008.7 26.1
2014-Oct-17 00:00N 35°56' W 069°14'0 0.0 1009.4 26.1
2014-Oct-16 22:00N 35°56' W 069°14'1 0.4 1010.3 26.0
2014-Oct-16 19:00N 35°55' W 069°15'12 0.9 1011.2 25.8
2014-Oct-16 06:00N 35°48' W 069°03'0 0.0 1016.5 25.8
2014-Oct-16 02:00N 35°48' W 069°03'1 1.2 1019.3 25.6
2014-Oct-16 01:00N 35°47' W 069°01'2 1.1 1019.5 25.5
2014-Oct-15 23:00N 35°46' W 068°59'2 0.4 1019.7 25.4
2014-Oct-15 18:00N 35°44' W 068°59'3 1.1 1020.0 25.1
2014-Oct-15 15:00N 35°44' W 068°55'0 0.3 1022.2 25.1
2014-Oct-15 14:00N 35°44' W 068°55'1 0.4 1022.5 25.1
2014-Oct-15 10:00N 35°42' W 068°54'0 0.0 1022.4 25.1
2014-Oct-15 09:00N 35°42' W 068°54'1 0.4 1022.6 25.0
2014-Oct-15 06:00N 35°43' W 068°52'0 0.0 1023.3 25.0
2014-Oct-15 02:00N 35°43' W 068°52'0 0.1 1024.6 25.1
2014-Oct-15 01:00N 35°43' W 068°52'1 0.4 1024.6 25.1
2014-Oct-14 23:00N 35°43' W 068°52'0 0.5 1024.7 25.1
2014-Oct-14 22:00N 35°43' W 068°51'0 0.1 1024.4 25.2
2014-Oct-14 18:00N 35°43' W 068°52'1 0.2 1025.0 25.4
2014-Oct-14 15:00N 35°42' W 068°51'1 0.4 1026.6 25.1
2014-Oct-14 13:00N 35°43' W 068°52'1 0.4 1026.7 25.1
2014-Oct-14 11:00N 35°43' W 068°52'0 0.4 1025.9 25.1
2014-Oct-14 10:00N 35°44' W 068°52'0 0.5 1025.7 25.1
2014-Oct-14 09:00N 35°44' W 068°52'2 0.8 1025.6 25.1
2014-Oct-14 06:00N 35°47' W 068°52'0 0.1 1025.7 25.1
2014-Oct-14 02:00N 35°47' W 068°53'0 0.0 1026.5 25.1
2014-Oct-14 01:00N 35°47' W 068°53'2 0.7 1026.4 25.1
2014-Oct-13 22:00N 35°49' W 068°54'0 0.0 1026.0 25.1
2014-Oct-13 21:00N 35°49' W 068°54'0 0.1 1025.7 25.1
2014-Oct-13 20:00N 35°49' W 068°54'1 0.6 1025.6 25.2
2014-Oct-13 18:00N 35°50' W 068°54'1 0.5 1025.6 25.1
2014-Oct-13 17:00N 35°51' W 068°54'1 0.7 1026.1 25.0
2014-Oct-13 16:00N 35°51' W 068°53'0 0.4 1026.6 25.0
2014-Oct-13 15:00N 35°52' W 068°53'2 0.6 1026.8 25.0
2014-Oct-13 11:00N 35°54' W 068°52'4 2.0 1025.1 25.0
2014-Oct-13 09:00N 35°57' W 068°49'0 0.0 1024.1 25.1
2014-Oct-13 08:00N 35°57' W 068°49'0 0.0 1024.0 25.1
2014-Oct-13 07:00N 35°57' W 068°49'5 2.4 1023.6 25.1
2014-Oct-13 05:00N 36°01' W 068°51'1 0.3 1023.5 25.1
2014-Oct-13 02:00N 36°02' W 068°52'1 1.3 1023.2 25.1
2014-Oct-13 01:00N 36°03' W 068°50'0 0.0 1022.8 25.2
2014-Oct-13 00:00N 36°03' W 068°50'4 3.9 1022.1 25.2
2014-Oct-12 23:00N 36°06' W 068°48'0 0.0 1021.2 25.2
2014-Oct-12 22:00N 36°06' W 068°48'1 0.7 1020.8 25.2
2014-Oct-12 21:00N 36°06' W 068°48'2 2.3 1020.3 25.3
2014-Oct-12 20:00N 36°08' W 068°47'2 1.1 1019.9 25.3
2014-Oct-12 18:00N 36°10' W 068°46'3 1.6 1018.4 25.3
2014-Oct-12 16:00N 36°13' W 068°44'1 0.8 1017.6 25.4
2014-Oct-12 15:00N 36°14' W 068°44'7 7.4 1016.8 25.4
2014-Oct-12 14:00N 36°21' W 068°39'2 0.4 1016.4 25.4
2014-Oct-12 10:00N 36°22' W 068°39'2 2.3 1012.6 25.3
2014-Oct-12 09:00N 36°24' W 068°38'2 0.8 1012.1 25.3
2014-Oct-12 07:00N 36°25' W 068°39'0 0.0 1012.3 25.3
2014-Oct-12 05:00N 36°25' W 068°39'3 1.0 1013.3 25.3
2014-Oct-12 02:00N 36°28' W 068°39'1 1.0 1014.2 25.4
2014-Oct-12 01:00N 36°29' W 068°39'0 0.1 1014.6 25.4
2014-Oct-12 00:00N 36°29' W 068°39'2 2.3 1014.8 25.5
2014-Oct-11 23:00N 36°31' W 068°38'1 0.5 1015.2 25.5
2014-Oct-11 21:00N 36°32' W 068°39'1 0.9 1015.2 25.5
2014-Oct-11 20:00N 36°33' W 068°40'0 0.0 1015.7 25.5
2014-Oct-11 19:00N 36°33' W 068°40'0 0.3 1016.2 25.6
2014-Oct-11 18:00N 36°33' W 068°40'0 0.5 1016.5 25.5
2014-Oct-11 17:00N 36°33' W 068°40'1 0.8 1017.0 25.5
2014-Oct-11 16:00N 36°34' W 068°41'1 1.2 1017.8 25.4
2014-Oct-11 15:00N 36°34' W 068°39'1 1.4 1018.0 25.4
2014-Oct-11 14:00N 36°35' W 068°39'1 1.2 1018.5 25.4
2014-Oct-11 13:00N 36°36' W 068°38'0 0.0 1018.8 25.4
2014-Oct-11 11:00N 36°36' W 068°38'0 0.0 1018.3 25.4
2014-Oct-11 10:00N 36°36' W 068°38'2 1.9 1018.2 25.4
2014-Oct-11 09:00N 36°37' W 068°37'0 0.0 1017.9 25.3
2014-Oct-11 08:00N 36°37' W 068°37'1 0.7 1018.2 25.3
2014-Oct-11 07:00N 36°38' W 068°37'0 0.2 1018.7 25.3
2014-Oct-11 05:00N 36°38' W 068°37'2 2.2 1019.1 25.3
2014-Oct-11 04:00N 36°40' W 068°35'0 0.0 1019.4 25.3
2014-Oct-11 03:00N 36°40' W 068°35'   1019.9 25.3

Dump ship's entire track history